Time;durP1;ratioP1;P1;durP2;ratioP2;P2;SDS_P1;SDS_P2;PMS_P1;PMS_P2;Temp;Humidity;BMP_temperature;BMP_pressure;BME280_temperature;BME280_humidity;BME280_pressure;Samples;Min_cycle;Max_cycle;Signal;HPM_P1;HPM_P2
2021/12/24 00:02:24;;;;;;;;;;;;;;;-2.72;67.45;99498.53;5112027;28;19977;-74
2021/12/24 00:04:49;;;;;;;;;;;;;;;-2.71;66.78;99497.56;5093406;28;20448;-74
2021/12/24 00:07:15;;;;;;;;;;;;;;;-2.71;67.03;99501.94;5093668;28;19923;-74
2021/12/24 00:09:40;;;;;;;;;;;;;;;-2.71;66.74;99494.09;5111519;28;20379;-72
2021/12/24 00:12:12;;;;;;;;;;;;;;;-2.71;67.04;99501.94;5112398;28;20389;-72
2021/12/24 00:14:42;;;;;;;;;;;;;;;-2.74;66.92;99490.84;5112154;28;19915;-73
2021/12/24 00:17:07;;;;;;;;;;;;;;;-2.75;67.49;99488.41;5110041;28;21423;-73
2021/12/24 00:35:35;;;;;;;;;;;;;;;-3.01;67.44;99489.63;5111400;28;19972;-78
2021/12/24 00:38:05;;;;;;;;;;;;;;;-3.05;68.28;99490.97;5111798;28;19998;-79
2021/12/24 00:40:36;;;;;;;;;;;;;;;-3.09;68.72;99489.66;5092735;28;19922;-77
2021/12/24 00:43:02;;;;;;;;;;;;;;;-3.13;68.48;99481.38;5093497;28;20366;-78
2021/12/24 00:45:29;;;;;;;;;;;;;;;-3.18;68.24;99488.13;5092769;28;19926;-77
2021/12/24 00:47:56;;;;;;;;;;;;;;;-3.26;68.62;99491.59;5110591;28;19919;-77
2021/12/24 00:50:25;;;;;;;;;;;;;;;-3.29;68.54;99487.53;5111091;28;20287;-80
2021/12/24 00:55:02;;;;;;;;;;;;;;;-3.31;68.81;99479.03;5093097;28;19992;-77
2021/12/24 00:55:36;;;;;;;;;;;;;;;-3.31;68.90;99473.81;5109754;28;19916;-80
2021/12/24 00:58:03;;;;;;;;;;;;;;;-3.31;69.21;99459.94;5093383;28;20014;-78
2021/12/24 01:00:30;;;;;;;;;;;;;;;-3.31;69.43;99465.97;5092589;28;19927;-74
2021/12/24 01:02:56;;;;;;;;;;;;;;;-3.29;69.01;99466.59;5092419;28;19988;-77
2021/12/24 01:05:23;;;;;;;;;;;;;;;-3.28;69.30;99456.97;5111005;28;20374;-78
2021/12/24 01:07:49;;;;;;;;;;;;;;;-3.27;69.58;99456.78;5092613;28;20375;-78
2021/12/24 01:10:17;;;;;;;;;;;;;;;-3.26;69.40;99450.56;5110974;28;19972;-75
2021/12/24 01:12:42;;;;;;;;;;;;;;;-3.23;69.62;99441.56;5110779;28;19959;-77
2021/12/24 01:15:08;;;;;;;;;;;;;;;-3.24;69.84;99434.69;5111342;28;19951;-77
2021/12/24 01:17:46;;;;;;;;;;;;;;;-3.21;68.96;99429.09;5091571;28;19923;-76
2021/12/24 01:20:28;;;;;;;;;;;;;;;-3.20;69.93;99419.47;5109941;28;20379;-74
2021/12/24 01:40:19;;;;;;;;;;;;;;;-3.17;69.84;99425.16;5110463;28;20390;-75
2021/12/24 01:44:50;;;;;;;;;;;;;;;-3.10;70.56;99396.47;5105713;28;19968;-77
2021/12/24 01:47:15;;;;;;;;;;;;;;;-3.07;70.66;99396.13;5110252;28;19920;-77
2021/12/24 01:49:41;;;;;;;;;;;;;;;-3.04;70.11;99387.09;5089190;28;20302;-78
2021/12/24 01:52:06;;;;;;;;;;;;;;;-3.02;70.43;99382.50;5091266;28;20334;-79
2021/12/24 01:54:32;;;;;;;;;;;;;;;-3.01;70.76;99389.38;5092023;28;19916;-73
2021/12/24 01:56:57;;;;;;;;;;;;;;;-2.98;69.96;99395.06;5110592;28;19926;-74
2021/12/24 01:59:23;;;;;;;;;;;;;;;-2.95;69.97;99383.44;5110629;28;19939;-74
2021/12/24 02:01:49;;;;;;;;;;;;;;;-2.92;70.33;99380.44;5113608;28;20285;-75
2021/12/24 02:04:15;;;;;;;;;;;;;;;-3.00;70.45;99351.72;5112734;28;19923;-74
2021/12/24 02:06:41;;;;;;;;;;;;;;;-2.88;69.78;99363.41;5113565;28;19927;-75
2021/12/24 02:09:06;;;;;;;;;;;;;;;-2.86;69.70;99356.16;5114130;28;19915;-74
2021/12/24 02:11:37;;;;;;;;;;;;;;;-2.83;69.90;99354.97;5114017;28;20067;-77
2021/12/24 02:14:05;;;;;;;;;;;;;;;-2.82;69.70;99351.38;5096354;28;19973;-75
2021/12/24 02:29:58;;;;;;;;;;;;;;;-2.80;69.45;99346.78;5113845;28;19923;-75
2021/12/24 02:32:23;;;;;;;;;;;;;;;-2.80;70.19;99339.72;5113514;28;19920;-74
2021/12/24 02:34:49;;;;;;;;;;;;;;;-2.81;69.31;99345.16;5095585;28;19919;-74
2021/12/24 02:37:14;;;;;;;;;;;;;;;-2.81;69.42;99345.94;5111602;28;19924;-73
2021/12/24 02:39:40;;;;;;;;;;;;;;;-2.82;69.13;99340.91;5113283;28;20302;-73
2021/12/24 02:42:09;;;;;;;;;;;;;;;-2.82;69.04;99335.66;5113590;28;19923;-73
2021/12/24 02:44:35;;;;;;;;;;;;;;;-2.86;68.84;99327.38;5113260;28;19951;-73
2021/12/24 02:54:54;;;;;;;;;;;;;;;-2.99;69.89;99327.19;5113131;28;19930;-73
2021/12/24 02:57:22;;;;;;;;;;;;;;;-3.01;69.68;99327.38;5113561;28;19915;-74
2021/12/24 02:59:58;;;;;;;;;;;;;;;-3.02;68.98;99317.91;5113315;28;20367;-73
2021/12/24 03:02:24;;;;;;;;;;;;;;;-3.04;69.07;99317.25;5113174;28;19919;-75
2021/12/24 03:04:49;;;;;;;;;;;;;;;-3.03;69.81;99326.72;5113284;28;19916;-72
2021/12/24 03:07:14;;;;;;;;;;;;;;;-3.06;69.94;99320.06;5113148;28;20363;-73
2021/12/24 03:09:40;;;;;;;;;;;;;;;-3.04;69.99;99324.31;5112866;28;19920;-73
2021/12/24 03:12:05;;;;;;;;;;;;;;;-3.03;69.27;99321.50;5112887;28;20022;-72
2021/12/24 03:14:30;;;;;;;;;;;;;;;-3.02;69.50;99319.72;5113018;28;19922;-73
2021/12/24 03:16:59;;;;;;;;;;;;;;;-3.01;69.69;99319.53;5112856;28;19926;-73
2021/12/24 03:19:29;;;;;;;;;;;;;;;-3.01;69.66;99319.53;5113390;28;20374;-73
2021/12/24 03:22:05;;;;;;;;;;;;;;;-2.99;70.20;99311.47;5112852;28;19919;-73
2021/12/24 03:24:34;;;;;;;;;;;;;;;-2.98;70.03;99329.66;5094700;28;19976;-74
2021/12/24 03:26:59;;;;;;;;;;;;;;;-2.98;70.33;99320.97;5113123;28;19915;-75
2021/12/24 03:29:24;;;;;;;;;;;;;;;-2.97;69.36;99325.22;5112594;28;19927;-73
2021/12/24 03:31:50;;;;;;;;;;;;;;;-2.97;70.17;99327.81;5112076;28;19923;-73
2021/12/24 03:34:17;;;;;;;;;;;;;;;-2.98;69.42;99318.34;5112856;28;19951;-73
2021/12/24 03:36:42;;;;;;;;;;;;;;;-2.97;69.94;99319.97;5112328;28;20442;-75
2021/12/24 03:39:08;;;;;;;;;;;;;;;-2.98;69.76;99308.72;5113006;28;20021;-74
2021/12/24 03:41:33;;;;;;;;;;;;;;;-2.97;70.07;99304.28;5112714;28;19923;-74
2021/12/24 03:43:59;;;;;;;;;;;;;;;-2.96;70.10;99311.13;5111446;28;19920;-74
2021/12/24 03:46:34;;;;;;;;;;;;;;;-2.95;70.35;99307.53;5091804;28;19959;-74
2021/12/24 03:49:04;;;;;;;;;;;;;;;-2.94;70.64;99309.13;5110571;28;19919;-73
2021/12/24 03:56:40;;;;;;;;;;;;;;;-2.95;71.03;99297.88;5112058;28;20390;-72
2021/12/24 03:59:06;;;;;;;;;;;;;;;-2.96;70.66;99293.63;5112399;28;19916;-74
2021/12/24 04:01:32;;;;;;;;;;;;;;;-2.96;70.98;99290.19;5093630;28;20401;-73
2021/12/24 04:03:57;;;;;;;;;;;;;;;-2.98;71.32;99292.19;5112308;28;20006;-76
2021/12/24 04:06:22;;;;;;;;;;;;;;;-3.00;71.34;99275.84;5093439;28;19963;-75
2021/12/24 04:08:48;;;;;;;;;;;;;;;-3.00;70.53;99283.69;5112249;28;19919;-73
2021/12/24 04:11:13;;;;;;;;;;;;;;;-3.00;70.83;99281.91;5093961;28;19985;-74
2021/12/24 04:13:38;;;;;;;;;;;;;;;-3.01;71.12;99271.63;5110912;28;19915;-73
2021/12/24 04:16:04;;;;;;;;;;;;;;;-3.02;70.88;99262.16;5112222;28;20298;-73
2021/12/24 04:26:27;;;;;;;;;;;;;;;-3.08;71.38;99269.72;5111430;28;20447;-74
2021/12/24 04:28:52;;;;;;;;;;;;;;;-3.09;71.23;99275.97;5111227;28;20002;-73
2021/12/24 04:31:21;;;;;;;;;;;;;;;-3.10;70.67;99268.25;5111664;28;19922;-73
2021/12/24 04:33:49;;;;;;;;;;;;;;;-3.13;70.88;99258.97;5093322;28;19921;-73
2021/12/24 04:36:41;;;;;;;;;;;;;;;-3.15;70.84;99266.22;5111160;28;19931;-72
2021/12/24 04:39:40;;;;;;;;;;;;;;;-3.16;70.86;99256.75;5111132;28;19934;-74
2021/12/24 05:03:41;;;;;;;;;;;;;;;-3.33;71.10;99244.81;5111365;28;19970;-72
2021/12/24 05:08:40;;;;;;;;;;;;;;;-3.32;71.64;99238.59;5111435;28;20003;-72
2021/12/24 05:11:10;;;;;;;;;;;;;;;-3.32;71.83;99234.19;5110820;28;19968;-73
2021/12/24 05:13:36;;;;;;;;;;;;;;;-3.31;71.93;99225.34;5092266;28;19916;-72
2021/12/24 05:16:12;;;;;;;;;;;;;;;-3.29;72.06;99218.13;5108118;28;19926;-74
2021/12/24 05:19:03;;;;;;;;;;;;;;;-3.27;71.54;99218.78;5110673;28;19943;-73
2021/12/24 05:21:42;;;;;;;;;;;;;;;-3.26;72.01;99217.78;5109819;28;20014;-73
2021/12/24 05:24:12;;;;;;;;;;;;;;;-3.32;72.25;99215.88;5110736;28;19984;-72
2021/12/24 05:26:38;;;;;;;;;;;;;;;-3.34;72.72;99227.50;5111002;28;19916;-72
2021/12/24 05:29:04;;;;;;;;;;;;;;;-3.35;72.69;99224.09;5092467;28;19915;-73
2021/12/24 05:31:30;;;;;;;;;;;;;;;-3.36;72.98;99234.72;5111356;28;20007;-73
2021/12/24 05:33:56;;;;;;;;;;;;;;;-3.36;72.99;99227.69;5111385;28;20997;-74
2021/12/24 05:36:21;;;;;;;;;;;;;;;-3.34;72.87;99230.94;5095839;28;19936;-73
2021/12/24 05:38:47;;;;;;;;;;;;;;;-3.33;72.95;99227.34;5114498;28;19927;-73
2021/12/24 05:41:12;;;;;;;;;;;;;;;-3.29;72.84;99233.03;5115314;28;20015;-72
2021/12/24 05:43:38;;;;;;;;;;;;;;;-3.29;73.07;99228.59;5114455;28;20318;-74
2021/12/24 05:46:03;;;;;;;;;;;;;;;-3.30;72.91;99234.00;5114884;28;19923;-74
2021/12/24 05:48:28;;;;;;;;;;;;;;;-3.33;73.01;99237.81;5115207;28;19916;-74
2021/12/24 05:50:54;;;;;;;;;;;;;;;-3.38;72.49;99242.78;5095639;28;20448;-74
2021/12/24 05:53:19;;;;;;;;;;;;;;;-3.40;73.18;99242.94;5096007;28;19920;-74
2021/12/24 05:55:45;;;;;;;;;;;;;;;-3.40;73.63;99247.34;5115026;28;20340;-74
2021/12/24 05:58:10;;;;;;;;;;;;;;;-3.39;73.96;99230.69;5114158;28;19923;-73
2021/12/24 06:00:38;;;;;;;;;;;;;;;-3.46;74.10;99235.81;5114358;28;19927;-73
2021/12/24 06:03:05;;;;;;;;;;;;;;;-3.43;74.32;99232.00;5114960;28;19915;-74
2021/12/24 06:05:30;;;;;;;;;;;;;;;-3.42;74.10;99236.25;5113747;28;19916;-74
2021/12/24 06:07:55;;;;;;;;;;;;;;;-3.37;74.01;99233.91;5095470;28;20281;-74
2021/12/24 06:10:21;;;;;;;;;;;;;;;-3.36;74.46;99238.16;5115042;28;20068;-71
2021/12/24 06:12:46;;;;;;;;;;;;;;;-3.30;75.05;99236.63;5113347;28;19923;-72
2021/12/24 06:15:11;;;;;;;;;;;;;;;-3.27;74.39;99252.78;5114278;28;19916;-73
2021/12/24 06:17:38;;;;;;;;;;;;;;;-3.20;74.52;99247.63;5095274;28;19977;-73
2021/12/24 06:20:07;;;;;;;;;;;;;;;-3.15;74.38;99255.75;5113226;28;19919;-74
2021/12/24 06:22:32;;;;;;;;;;;;;;;-3.08;74.68;99245.34;5095721;28;19915;-73
2021/12/24 06:24:58;;;;;;;;;;;;;;;-2.99;74.15;99251.31;5113687;28;19926;-72
2021/12/24 06:27:23;;;;;;;;;;;;;;;-2.93;74.19;99251.41;5113820;28;19923;-73
2021/12/24 06:29:48;;;;;;;;;;;;;;;-2.85;73.26;99262.75;5113049;28;19920;-73
2021/12/24 06:32:14;;;;;;;;;;;;;;;-2.76;74.27;99235.47;5113049;28;19967;-73
2021/12/24 06:34:39;;;;;;;;;;;;;;;-2.67;73.37;99255.31;5113093;28;19928;-73
2021/12/24 06:37:04;;;;;;;;;;;;;;;-2.60;72.83;99232.63;5113772;28;19916;-72
2021/12/24 06:39:30;;;;;;;;;;;;;;;-2.53;73.34;99232.69;5113696;28;19923;-72
2021/12/24 06:41:55;;;;;;;;;;;;;;;-2.44;73.30;99217.66;5112787;28;20379;-70
2021/12/24 06:44:21;;;;;;;;;;;;;;;-2.35;72.57;99241.94;5112441;28;20299;-72
2021/12/24 06:46:47;;;;;;;;;;;;;;;-2.31;72.64;99232.72;5111879;28;19927;-73
2021/12/24 06:49:13;;;;;;;;;;;;;;;-2.25;71.66;99237.19;5112771;28;20014;-74
2021/12/24 06:51:38;;;;;;;;;;;;;;;-2.19;71.90;99228.59;5108708;28;20360;-74
2021/12/24 06:54:04;;;;;;;;;;;;;;;-2.11;71.40;99244.19;5113193;28;19920;-73
2021/12/24 06:56:29;;;;;;;;;;;;;;;-2.03;71.16;99240.59;5113103;28;19926;-71
2021/12/24 06:58:54;;;;;;;;;;;;;;;-1.96;70.79;99235.44;5113415;28;20048;-71
2021/12/24 07:01:20;;;;;;;;;;;;;;;-1.90;70.64;99224.19;5113438;28;20012;-72
2021/12/24 07:03:45;;;;;;;;;;;;;;;-1.85;70.62;99218.38;5112764;28;19916;-74
2021/12/24 07:06:10;;;;;;;;;;;;;;;-1.81;69.98;99228.31;5113424;28;19927;-72
2021/12/24 07:08:36;;;;;;;;;;;;;;;-1.73;70.16;99232.59;5113690;28;20362;-72
2021/12/24 07:11:02;;;;;;;;;;;;;;;-1.64;69.90;99233.25;5113043;28;19915;-73
2021/12/24 07:13:28;;;;;;;;;;;;;;;-1.56;69.36;99233.09;5112961;28;19942;-73
2021/12/24 07:15:53;;;;;;;;;;;;;;;-1.52;69.38;99238.78;5112910;28;19972;-72
2021/12/24 07:18:18;;;;;;;;;;;;;;;-1.51;69.27;99216.81;5093097;28;19923;-72
2021/12/24 07:20:43;;;;;;;;;;;;;;;-1.37;68.68;99228.16;5112704;28;19920;-73
2021/12/24 07:23:09;;;;;;;;;;;;;;;-1.27;69.86;99225.19;5095051;28;19916;-72
2021/12/24 07:25:34;;;;;;;;;;;;;;;-1.16;69.35;99222.84;5113262;28;20358;-73
2021/12/24 07:28:01;;;;;;;;;;;;;;;-1.05;69.12;99210.16;5112360;28;19932;-72
2021/12/24 07:30:27;;;;;;;;;;;;;;;-0.95;69.28;99204.53;5094738;28;19916;-72
2021/12/24 07:32:52;;;;;;;;;;;;;;;-0.83;69.29;99188.03;5112689;28;19920;-72
2021/12/24 07:35:18;;;;;;;;;;;;;;;-0.69;69.13;99188.06;5112070;28;19923;-74
2021/12/24 07:37:43;;;;;;;;;;;;;;;-0.59;68.36;99182.41;5112741;28;20014;-74
2021/12/24 07:40:09;;;;;;;;;;;;;;;-0.54;67.46;99185.25;5112771;28;20366;-72
2021/12/24 07:42:35;;;;;;;;;;;;;;;-0.44;67.40;99182.22;5112286;28;19920;-71
2021/12/24 07:45:01;;;;;;;;;;;;;;;-0.35;67.15;99168.69;5112363;28;19923;-72
2021/12/24 07:47:28;;;;;;;;;;;;;;;-0.23;66.49;99171.53;5112536;28;19916;-72
2021/12/24 07:50:01;;;;;;;;;;;;;;;-0.11;66.23;99166.50;5110592;28;19920;-71
2021/12/24 07:52:27;;;;;;;;;;;;;;;0.01;65.44;99173.75;5112541;28;19985;-73
2021/12/24 07:54:54;;;;;;;;;;;;;;;0.04;65.40;99171.53;5112074;28;19967;-71
2021/12/24 07:57:20;;;;;;;;;;;;;;;0.12;65.48;99162.59;5111064;28;19922;-73
2021/12/24 07:59:45;;;;;;;;;;;;;;;0.14;64.82;99174.53;5112190;28;20371;-73
2021/12/24 08:02:24;;;;;;;;;;;;;;;0.14;64.27;99166.66;5112124;28;19916;-73
2021/12/24 08:04:51;;;;;;;;;;;;;;;0.13;64.00;99170.28;5111284;28;19920;-73
2021/12/24 08:07:16;;;;;;;;;;;;;;;0.10;63.87;99185.69;5111209;28;19920;-72
2021/12/24 08:09:42;;;;;;;;;;;;;;;0.07;63.37;99178.19;5112077;28;19926;-73
2021/12/24 08:12:09;;;;;;;;;;;;;;;0.02;63.32;99184.06;5110165;28;20014;-77
2021/12/24 08:14:34;;;;;;;;;;;;;;;-0.01;62.92;99174.75;5097368;28;20522;-74
2021/12/24 08:17:00;;;;;;;;;;;;;;;-0.02;62.74;99182.88;5091891;28;20007;-75
2021/12/24 08:19:25;;;;;;;;;;;;;;;0.01;62.25;99184.28;5110371;28;19920;-78
2021/12/24 08:21:50;;;;;;;;;;;;;;;0.05;62.76;99177.59;5092948;28;19996;-74
2021/12/24 08:24:16;;;;;;;;;;;;;;;0.14;62.36;99160.59;5092805;28;20399;-76
2021/12/24 08:26:41;;;;;;;;;;;;;;;0.20;61.49;99167.66;5092949;28;19916;-74
2021/12/24 08:29:07;;;;;;;;;;;;;;;0.25;60.82;99156.53;5111819;28;20363;-73
2021/12/24 08:31:34;;;;;;;;;;;;;;;0.32;60.67;99163.38;5111473;28;19919;-72
2021/12/24 08:34:00;;;;;;;;;;;;;;;0.39;60.45;99147.59;5109952;28;19930;-86
2021/12/24 08:36:26;;;;;;;;;;;;;;;0.46;60.87;99152.81;5091005;28;19939;-77
2021/12/24 08:38:51;;;;;;;;;;;;;;;0.53;60.00;99144.94;5092089;28;19916;-77
2021/12/24 08:41:16;;;;;;;;;;;;;;;0.59;60.18;99136.19;5092359;28;20291;-82
2021/12/24 08:43:42;;;;;;;;;;;;;;;0.68;60.31;99139.41;5117115;27;19919;-76
2021/12/24 08:46:07;;;;;;;;;;;;;;;0.76;60.29;99139.16;5112071;28;20007;-88
2021/12/24 08:48:32;;;;;;;;;;;;;;;0.86;59.62;99128.19;5092255;28;19980;-87
2021/12/24 08:50:58;;;;;;;;;;;;;;;0.96;60.28;99123.25;5097058;28;19926;-86
2021/12/24 08:53:23;;;;;;;;;;;;;;;1.06;60.57;99118.34;5092832;28;19950;-80
2021/12/24 08:55:49;;;;;;;;;;;;;;;1.15;60.77;99110.19;5091119;28;20357;-77
2021/12/24 08:58:14;;;;;;;;;;;;;;;1.20;61.46;99113.81;5092800;28;20381;-77
2021/12/24 09:00:39;;;;;;;;;;;;;;;1.26;61.49;99107.69;5127354;27;19916;-83
2021/12/24 09:03:04;;;;;;;;;;;;;;;1.33;61.64;99110.28;5092371;28;19971;-84
2021/12/24 09:05:30;;;;;;;;;;;;;;;1.36;61.65;99096.66;5092995;28;19916;-81
2021/12/24 09:07:56;;;;;;;;;;;;;;;1.41;61.37;99090.75;5093021;28;19919;-81
2021/12/24 09:10:22;;;;;;;;;;;;;;;1.47;61.69;99097.00;5092121;28;19969;-80
2021/12/24 09:12:48;;;;;;;;;;;;;;;1.53;61.33;99102.22;5092651;28;20354;-79
2021/12/24 09:15:14;;;;;;;;;;;;;;;1.62;61.23;99088.78;5093136;28;19965;-86
2021/12/24 09:17:44;;;;;;;;;;;;;;;1.71;61.96;99085.66;5091810;28;19920;-83
2021/12/24 09:20:12;;;;;;;;;;;;;;;1.82;60.71;99078.03;5092699;28;20006;-84
2021/12/24 09:22:39;;;;;;;;;;;;;;;1.94;60.90;99071.00;5092892;28;19916;-79
2021/12/24 09:25:04;;;;;;;;;;;;;;;2.01;60.18;99057.78;5091414;28;19924;-78
2021/12/24 09:27:30;;;;;;;;;;;;;;;2.08;59.42;99067.22;5111290;28;19919;-77
2021/12/24 09:29:55;;;;;;;;;;;;;;;2.17;59.65;99061.66;5089976;28;20007;-81
2021/12/24 09:32:20;;;;;;;;;;;;;;;2.25;59.98;99061.38;5092328;28;19916;-79
2021/12/24 09:34:46;;;;;;;;;;;;;;;2.33;60.00;99060.25;5092072;28;20018;-81
2021/12/24 09:37:11;;;;;;;;;;;;;;;2.42;60.28;99058.09;5092835;28;19923;-80
2021/12/24 09:39:36;;;;;;;;;;;;;;;2.52;60.24;99045.19;5092311;28;19923;-79
2021/12/24 09:42:03;;;;;;;;;;;;;;;2.63;60.60;99044.44;5092570;28;19920;-81
2021/12/24 09:44:28;;;;;;;;;;;;;;;2.71;59.96;99033.56;5092567;28;19915;-81
2021/12/24 09:46:54;;;;;;;;;;;;;;;2.80;59.32;99035.91;5091811;28;19924;-82
2021/12/24 09:49:20;;;;;;;;;;;;;;;2.86;59.19;99029.72;5092314;28;19916;-78
2021/12/24 09:51:48;;;;;;;;;;;;;;;2.93;58.64;99034.88;5092290;28;19916;-76
2021/12/24 09:54:15;;;;;;;;;;;;;;;3.03;58.60;99024.59;5091849;28;19993;-75
2021/12/24 09:56:41;;;;;;;;;;;;;;;3.14;58.22;99025.66;5091430;28;20348;-73
2021/12/24 09:59:06;;;;;;;;;;;;;;;3.20;58.15;99016.81;5109289;28;19915;-73
2021/12/24 10:01:36;;;;;;;;;;;;;;;3.29;58.12;99011.97;5091212;28;19945;-73
2021/12/24 10:04:05;;;;;;;;;;;;;;;3.39;57.60;99014.84;5109734;28;20046;-72
2021/12/24 10:06:30;;;;;;;;;;;;;;;3.48;57.34;98994.19;5090677;28;20352;-72
2021/12/24 10:09:04;;;;;;;;;;;;;;;3.53;57.17;98994.28;5089678;28;19920;-71
2021/12/24 10:11:30;;;;;;;;;;;;;;;3.64;56.99;98969.66;5110301;28;19977;-72
2021/12/24 10:14:02;;;;;;;;;;;;;;;3.75;56.88;98956.66;5091844;28;19916;-72
2021/12/24 10:16:28;;;;;;;;;;;;;;;3.81;56.29;98950.44;5108628;28;19920;-72
2021/12/24 10:18:54;;;;;;;;;;;;;;;3.85;56.30;98938.34;5109933;28;19943;-72
2021/12/24 10:21:22;;;;;;;;;;;;;;;3.90;55.81;98933.16;5092251;28;19916;-72
2021/12/24 10:23:50;;;;;;;;;;;;;;;3.94;55.61;98931.66;5112404;28;19920;-72
2021/12/24 10:26:18;;;;;;;;;;;;;;;3.97;54.91;98933.81;5112626;28;20667;-72
2021/12/24 10:28:55;;;;;;;;;;;;;;;4.00;55.19;98929.91;5112326;28;19978;-73
2021/12/24 10:31:25;;;;;;;;;;;;;;;4.03;55.06;98921.50;5113155;28;19978;-72
2021/12/24 10:34:10;;;;;;;;;;;;;;;4.08;55.21;98918.94;5113835;28;19917;-71
2021/12/24 10:36:57;;;;;;;;;;;;;;;4.15;54.96;98916.16;5113864;28;19916;-72
2021/12/24 10:39:25;;;;;;;;;;;;;;;4.23;54.58;98920.28;5113232;28;19920;-72
2021/12/24 10:41:52;;;;;;;;;;;;;;;4.29;54.32;98925.41;5113981;28;19922;-72
2021/12/24 10:44:27;;;;;;;;;;;;;;;4.35;54.55;98928.97;5114050;28;19916;-73
2021/12/24 10:46:58;;;;;;;;;;;;;;;4.43;54.22;98919.81;5113121;28;19916;-73
2021/12/24 10:49:38;;;;;;;;;;;;;;;4.51;54.28;98914.13;5113003;28;19916;-73
2021/12/24 10:52:32;;;;;;;;;;;;;;;4.59;54.39;98918.22;5111936;28;19927;-73
2021/12/24 10:55:05;;;;;;;;;;;;;;;4.65;53.93;98912.78;5110895;28;19920;-73
2021/12/24 10:57:31;;;;;;;;;;;;;;;4.73;54.13;98900.19;5113289;28;19920;-72
2021/12/24 10:59:58;;;;;;;;;;;;;;;4.79;53.96;98907.19;5112721;28;19980;-72
2021/12/24 11:02:27;;;;;;;;;;;;;;;4.86;53.84;98902.53;5111409;28;19920;-72
2021/12/24 11:04:53;;;;;;;;;;;;;;;4.92;53.63;98901.56;5112122;28;19966;-73
2021/12/24 11:07:30;;;;;;;;;;;;;;;4.99;53.46;98888.13;5112686;28;19920;-72
2021/12/24 11:10:13;;;;;;;;;;;;;;;5.07;53.24;98886.91;5092010;28;20310;-72
2021/12/24 11:12:43;;;;;;;;;;;;;;;5.13;53.54;98886.75;5094636;28;19972;-73
2021/12/24 11:15:22;;;;;;;;;;;;;;;5.21;53.57;98887.38;5112918;28;20060;-72
2021/12/24 11:17:48;;;;;;;;;;;;;;;5.25;53.00;98885.84;5112187;28;19920;-73
2021/12/24 11:20:14;;;;;;;;;;;;;;;5.29;53.00;98886.97;5112664;28;19927;-72
2021/12/24 11:22:48;;;;;;;;;;;;;;;5.33;53.14;98881.97;5112489;28;19916;-73
2021/12/24 11:25:14;;;;;;;;;;;;;;;5.37;53.27;98875.13;5111413;28;19920;-73
2021/12/24 11:27:39;;;;;;;;;;;;;;;5.38;52.80;98885.50;5112676;28;19976;-73
2021/12/24 11:30:05;;;;;;;;;;;;;;;5.45;52.91;98883.44;5111837;28;19985;-73
2021/12/24 11:32:30;;;;;;;;;;;;;;;5.52;52.56;98877.19;5110274;28;20386;-72
2021/12/24 11:34:56;;;;;;;;;;;;;;;5.55;52.24;98890.72;5111422;28;19940;-72
2021/12/24 11:37:22;;;;;;;;;;;;;;;5.58;52.23;98881.50;5111771;28;20022;-72
2021/12/24 11:39:48;;;;;;;;;;;;;;;5.60;52.37;98882.84;5111455;28;19920;-72
2021/12/24 11:42:13;;;;;;;;;;;;;;;5.61;52.44;98881.81;5093668;28;20297;-73
2021/12/24 11:44:39;;;;;;;;;;;;;;;5.61;52.27;98881.81;5112563;28;19920;-73
2021/12/24 11:47:05;;;;;;;;;;;;;;;5.61;52.67;98873.84;5111338;28;20004;-73
2021/12/24 11:49:31;;;;;;;;;;;;;;;5.65;53.82;98876.00;5112665;28;19922;-73
2021/12/24 11:51:57;;;;;;;;;;;;;;;5.67;52.55;98864.06;5112357;28;19920;-73
2021/12/24 11:54:22;;;;;;;;;;;;;;;5.66;52.69;98857.16;5111734;28;19943;-73
2021/12/24 11:56:51;;;;;;;;;;;;;;;5.66;52.74;98853.72;5111965;28;19915;-74
2021/12/24 11:59:33;;;;;;;;;;;;;;;5.64;52.41;98853.97;5112019;28;20410;-74
2021/12/24 12:01:58;;;;;;;;;;;;;;;5.67;53.14;98842.84;5093095;28;19916;-73
2021/12/24 12:04:23;;;;;;;;;;;;;;;5.70;52.74;98841.53;5112051;28;19972;-73
2021/12/24 12:06:49;;;;;;;;;;;;;;;5.71;52.62;98825.41;5090085;28;20393;-73
2021/12/24 12:09:14;;;;;;;;;;;;;;;5.84;52.99;98824.19;5090657;28;19967;-73
2021/12/24 12:11:41;;;;;;;;;;;;;;;5.90;52.94;98828.50;5090956;28;19956;-73
2021/12/24 12:14:10;;;;;;;;;;;;;;;5.96;51.70;98833.84;5089455;28;19923;-73
2021/12/24 12:16:41;;;;;;;;;;;;;;;6.03;52.11;98816.72;5090387;28;20403;-73
2021/12/24 12:19:21;;;;;;;;;;;;;;;6.11;51.88;98820.75;5091143;28;19916;-73
2021/12/24 12:22:11;;;;;;;;;;;;;;;6.19;52.26;98815.00;5091122;28;20399;-73
2021/12/24 12:25:00;;;;;;;;;;;;;;;6.28;51.68;98823.28;5089509;28;20398;-73
2021/12/24 12:27:41;;;;;;;;;;;;;;;6.37;51.86;98820.97;5091038;28;19965;-73
2021/12/24 12:30:16;;;;;;;;;;;;;;;6.45;52.10;98814.41;5088790;28;20341;-73
2021/12/24 12:32:41;;;;;;;;;;;;;;;6.52;52.37;98805.16;5090849;28;20387;-74
2021/12/24 12:35:06;;;;;;;;;;;;;;;6.56;52.07;98806.25;5090637;28;19923;-74
2021/12/24 12:37:44;;;;;;;;;;;;;;;6.64;52.47;98801.50;5088962;28;20023;-74
2021/12/24 12:40:12;;;;;;;;;;;;;;;6.69;52.31;98798.91;5090419;28;19920;-74
2021/12/24 12:42:54;;;;;;;;;;;;;;;6.75;52.21;98789.91;5089199;28;19963;-74
2021/12/24 12:45:41;;;;;;;;;;;;;;;6.83;52.84;98788.63;5088126;28;19916;-74
2021/12/24 12:48:08;;;;;;;;;;;;;;;6.91;52.99;98789.97;5090083;28;19934;-74
2021/12/24 12:50:34;;;;;;;;;;;;;;;6.97;53.06;98788.94;5089454;28;19923;-73
2021/12/24 12:53:19;;;;;;;;;;;;;;;7.01;52.73;98787.38;5088541;28;19916;-74
2021/12/24 12:55:44;;;;;;;;;;;;;;;7.11;52.65;98783.97;5090757;28;20551;-74
2021/12/24 12:58:23;;;;;;;;;;;;;;;7.17;52.52;98778.41;5090550;28;19924;-74
2021/12/24 13:01:00;;;;;;;;;;;;;;;7.24;52.44;98782.69;5090115;28;19916;-74
2021/12/24 13:03:26;;;;;;;;;;;;;;;7.30;52.40;98777.13;5089224;28;19916;-74
2021/12/24 13:05:55;;;;;;;;;;;;;;;7.35;52.74;98771.03;5092087;28;19916;-74
2021/12/24 13:08:22;;;;;;;;;;;;;;;7.42;52.80;98774.25;5110867;28;19916;-74
2021/12/24 13:10:54;;;;;;;;;;;;;;;7.49;52.70;98772.13;5111369;28;19916;-74
2021/12/24 13:13:20;;;;;;;;;;;;;;;7.54;52.16;98766.00;5092715;28;19916;-74
2021/12/24 13:15:46;;;;;;;;;;;;;;;7.61;52.15;98763.13;5111182;28;19922;-74
2021/12/24 13:18:27;;;;;;;;;;;;;;;7.66;51.75;98769.22;5111038;28;19920;-73
2021/12/24 13:23:35;;;;;;;;;;;;;;;7.78;50.49;98761.00;5110738;28;20429;-74
2021/12/24 13:26:07;;;;;;;;;;;;;;;7.83;50.72;98753.03;5110522;28;19965;-74
2021/12/24 13:28:32;;;;;;;;;;;;;;;7.89;50.26;98764.47;5111071;28;19923;-74
2021/12/24 13:30:58;;;;;;;;;;;;;;;7.95;50.03;98763.41;5092118;28;20002;-74
2021/12/24 13:33:23;;;;;;;;;;;;;;;7.99;50.00;98761.81;5110985;28;19916;-74
2021/12/24 13:35:49;;;;;;;;;;;;;;;8.02;50.21;98761.28;5092796;28;19955;-74
2021/12/24 13:38:15;;;;;;;;;;;;;;;8.07;49.97;98768.50;5110253;28;19920;-74
2021/12/24 13:40:41;;;;;;;;;;;;;;;8.12;50.04;98765.03;5110875;28;19916;-74
2021/12/24 13:43:08;;;;;;;;;;;;;;;8.15;49.86;98762.66;5110507;28;20015;-74
2021/12/24 13:45:36;;;;;;;;;;;;;;;8.18;50.10;98770.09;5092201;28;19958;-74
2021/12/24 13:48:12;;;;;;;;;;;;;;;8.20;50.16;98761.03;5110486;28;19998;-74
2021/12/24 13:56:25;;;;;;;;;;;;;;;8.25;50.15;98747.69;5112191;28;19923;-74
2021/12/24 13:58:51;;;;;;;;;;;;;;;8.25;50.34;98753.03;5095854;28;20411;-74
2021/12/24 14:01:21;;;;;;;;;;;;;;;8.24;50.40;98748.75;5114284;28;19919;-74
2021/12/24 14:03:47;;;;;;;;;;;;;;;8.23;50.37;98753.31;5114432;28;20375;-74
2021/12/24 14:06:12;;;;;;;;;;;;;;;8.22;50.64;98751.72;5113882;28;19924;-73
2021/12/24 14:08:39;;;;;;;;;;;;;;;8.23;50.96;98760.50;5115205;28;20436;-74
2021/12/24 14:11:10;;;;;;;;;;;;;;;8.21;50.77;98754.66;5095901;28;20382;-74
2021/12/24 14:13:40;;;;;;;;;;;;;;;8.20;51.54;98745.06;5114047;28;19926;-74
2021/12/24 14:16:37;;;;;;;;;;;;;;;8.19;50.96;98754.91;5095756;28;19916;-73
2021/12/24 14:19:13;;;;;;;;;;;;;;;8.17;50.64;98741.84;5096066;28;19955;-74
2021/12/24 14:21:45;;;;;;;;;;;;;;;8.15;50.84;98751.16;5095362;28;20379;-74
2021/12/24 14:24:11;;;;;;;;;;;;;;;8.14;50.83;98774.34;5114053;28;20443;-74
2021/12/24 14:26:40;;;;;;;;;;;;;;;8.13;50.90;98770.09;5114205;28;19939;-74
2021/12/24 14:29:07;;;;;;;;;;;;;;;8.10;50.89;98765.28;5113216;28;19964;-74
2021/12/24 14:31:52;;;;;;;;;;;;;;;8.07;50.64;98763.16;5114084;28;19962;-74
2021/12/24 14:34:28;;;;;;;;;;;;;;;8.03;50.93;98775.41;5114137;28;19920;-74
2021/12/24 14:37:17;;;;;;;;;;;;;;;7.98;51.18;98764.75;5095457;28;20014;-74
2021/12/24 14:39:45;;;;;;;;;;;;;;;7.94;51.23;98769.03;5100412;28;19920;-75
2021/12/24 14:42:12;;;;;;;;;;;;;;;7.92;51.36;98771.97;5095402;28;20019;-75